Wetterdaten: Jahr 2019
Datum Temp Feuchte Luftdruck Regen Wind Richtung Sonnenschein UV Solar Windben
01.01.2019 3,9 C 94 % 1023,9 hPa 3,8 l/m 14,7 km/h N 0,08 h 0,0 UV-I 25 W/m 31,3 km/h
02.01.2019 0,1 C 81 % 1033,0 hPa 1,6 l/m 7,1 km/h N-NW 3,83 h 0,6 UV-I 106 W/m 14,1 km/h
03.01.2019 0,0 C 96 % 1036,7 hPa 1,0 l/m 0,0 km/h N 0,00 h 0,5 UV-I 35 W/m 0,0 km/h
04.01.2019 2,0 C 98 % 1031,7 hPa 7,6 l/m 5,4 km/h N-NW 0,00 h 0,0 UV-I 19 W/m 20,9 km/h
05.01.2019 5,7 C 98 % 1025,4 hPa 19,2 l/m 12,6 km/h N-NW 0,00 h 0,0 UV-I 24 W/m 26,5 km/h
06.01.2019 5,2 C 98 % 1029,6 hPa 11,0 l/m 11,0 km/h NW 0,00 h 0,0 UV-I 32 W/m 22,1 km/h
07.01.2019 4,6 C 98 % 1024,7 hPa 11,2 l/m 12,5 km/h S-SW 0,00 h 0,5 UV-I 25 W/m 27,0 km/h
08.01.2019 3,7 C 95 % 1008,7 hPa 10,2 l/m 16,1 km/h N 0,00 h 0,0 UV-I 21 W/m 32,6 km/h
09.01.2019 0,7 C 89 % 1016,3 hPa 0,6 l/m 12,4 km/h N-NW 0,00 h 0,0 UV-I 49 W/m 22,1 km/h
10.01.2019 -0,2 C 92 % 1024,9 hPa 0,8 l/m 0,0 km/h N 0,00 h 0,5 UV-I 51 W/m 0,0 km/h
11.01.2019 3,1 C 98 % 1020,4 hPa 6,8 l/m 6,3 km/h NW 0,00 h 0,0 UV-I 17 W/m 16,5 km/h
12.01.2019 4,4 C 97 % 1012,5 hPa 8,2 l/m 11,3 km/h N 0,00 h 0,0 UV-I 16 W/m 25,7 km/h
13.01.2019 5,4 C 97 % 999,7 hPa 23,2 l/m 9,1 km/h N 0,00 h 0,0 UV-I 18 W/m 24,9 km/h
14.01.2019 1,9 C 91 % 1011,9 hPa 1,2 l/m 5,9 km/h NW 0,58 h 0,6 UV-I 62 W/m 20,5 km/h
15.01.2019 3,8 C 93 % 1014,8 hPa 0,8 l/m 11,0 km/h N 0,00 h 0,0 UV-I 23 W/m 26,5 km/h
16.01.2019 4,1 C 89 % 1005,5 hPa 0,2 l/m 9,2 km/h S-SW 0,00 h 0,5 UV-I 42 W/m 18,5 km/h
17.01.2019 1,3 C 95 % 1003,2 hPa 10,0 l/m 7,6 km/h N 0,33 h 0,6 UV-I 55 W/m 20,9 km/h
18.01.2019 -2,7 C 93 % 1019,2 hPa 0,6 l/m 0,0 km/h NW 3,25 h 0,6 UV-I 122 W/m 0,0 km/h
19.01.2019 -2,3 C 83 % 1017,1 hPa 0,0 l/m 5,9 km/h SO 4,92 h 0,7 UV-I 139 W/m 12,5 km/h
20.01.2019 -5,0 C 84 % 1019,1 hPa 0,0 l/m 0,2 km/h SO 5,67 h 0,7 UV-I 149 W/m 1,2 km/h
21.01.2019 -6,3 C 88 % 1020,6 hPa 0,0 l/m 0,0 km/h S 4,92 h 0,7 UV-I 138 W/m 0,0 km/h
22.01.2019 -6,0 C 89 % 1006,6 hPa 0,0 l/m 17,4 km/h S-SO 4,42 h 0,7 UV-I 139 W/m 23,8 km/h
23.01.2019 -6,6 C 91 % 1002,5 hPa 0,0 l/m 0,1 km/h S-SO 0,00 h 0,5 UV-I 76 W/m 1,2 km/h
24.01.2019 -5,5 C 88 % 1012,3 hPa 0,0 l/m 2,0 km/h SO 1,25 h 0,6 UV-I 95 W/m 4,0 km/h
25.01.2019 -2,8 C 93 % 1012,3 hPa 3,4 l/m 5,3 km/h S 0,33 h 0,7 UV-I 83 W/m 10,8 km/h
26.01.2019 3,9 C 98 % 1001,5 hPa 29,8 l/m 12,2 km/h N 0,00 h 0,0 UV-I 22 W/m 25,4 km/h
27.01.2019 3,2 C 95 % 986,3 hPa 7,4 l/m 13,2 km/h S 0,00 h 0,5 UV-I 45 W/m 22,5 km/h
28.01.2019 0,9 C 96 % 994,1 hPa 7,8 l/m 14,4 km/h S 0,00 h 0,0 UV-I 32 W/m 25,4 km/h
29.01.2019 -1,6 C 95 % 1002,6 hPa 0,2 l/m 1,5 km/h N 1,08 h 0,7 UV-I 88 W/m 5,6 km/h
30.01.2019 -1,4 C 94 % 994,2 hPa 0,8 l/m 3,6 km/h SO 0,00 h 0,6 UV-I 67 W/m 10,5 km/h
31.01.2019 -1,1 C 90 % 996,3 hPa 1,0 l/m 2,4 km/h SO 1,08 h 0,6 UV-I 89 W/m 13,7 km/h
01.02.2019 0,2 C 91 % 991,2 hPa 0,2 l/m 5,6 km/h S-SO 4,17 h 0,8 UV-I 148 W/m 10,9 km/h
02.02.2019 0,5 C 96 % 1000,1 hPa 1,6 l/m 1,5 km/h N 0,00 h 0,5 UV-I 54 W/m 4,8 km/h
03.02.2019 0,4 C 92 % 1020,1 hPa 0,2 l/m 1,8 km/h NW 0,83 h 0,6 UV-I 79 W/m 7,6 km/h
04.02.2019 1,4 C 83 % 1025,1 hPa 0,0 l/m 9,2 km/h S 4,25 h 0,8 UV-I 140 W/m 14,5 km/h
05.02.2019 1,2 C 94 % 1026,8 hPa 1,2 l/m 0,2 km/h S 0,00 h 0,5 UV-I 45 W/m 2,0 km/h
06.02.2019 2,7 C 86 % 1021,0 hPa 0,0 l/m 14,2 km/h S 1,75 h 0,9 UV-I 128 W/m 18,9 km/h
07.02.2019 4,8 C 82 % 1010,3 hPa 1,2 l/m 19,1 km/h S-SO 1,17 h 0,7 UV-I 90 W/m 29,0 km/h
08.02.2019 5,4 C 87 % 1008,4 hPa 0,2 l/m 17,0 km/h S 0,00 h 0,6 UV-I 61 W/m 27,0 km/h
09.02.2019 6,9 C 78 % 1004,9 hPa 2,6 l/m 14,2 km/h S-SW 2,42 h 0,7 UV-I 139 W/m 28,6 km/h
10.02.2019 3,8 C 93 % 993,2 hPa 20,8 l/m 15,6 km/h S 0,00 h 0,0 UV-I 32 W/m 28,1 km/h
11.02.2019 2,6 C 90 % 1018,8 hPa 8,0 l/m 5,0 km/h N 1,33 h 0,6 UV-I 86 W/m 20,9 km/h
12.02.2019 2,9 C 90 % 1032,3 hPa 0,0 l/m 3,7 km/h N 0,08 h 0,7 UV-I 75 W/m 17,3 km/h
13.02.2019 3,8 C 91 % 1034,8 hPa 0,4 l/m 1,0 km/h N 1,58 h 0,8 UV-I 104 W/m 5,2 km/h
14.02.2019 3,5 C 75 % 1035,4 hPa 0,0 l/m 0,0 km/h S 5,50 h 1,0 UV-I 197 W/m 0,8 km/h
15.02.2019 7,3 C 67 % 1030,9 hPa 0,0 l/m 5,6 km/h S 7,25 h 1,1 UV-I 228 W/m 10,1 km/h
16.02.2019 6,8 C 72 % 1025,1 hPa 0,0 l/m 1,8 km/h S 7,33 h 1,2 UV-I 234 W/m 3,6 km/h
17.02.2019 5,3 C 77 % 1021,5 hPa 0,0 l/m 2,6 km/h S 7,33 h 1,1 UV-I 221 W/m 4,4 km/h
18.02.2019 6,3 C 71 % 1016,8 hPa 0,0 l/m 3,8 km/h S 7,33 h 1,0 UV-I 236 W/m 5,6 km/h
19.02.2019 6,7 C 79 % 1017,8 hPa 0,0 l/m 6,6 km/h N 0,58 h 0,8 UV-I 102 W/m 18,5 km/h
20.02.2019 5,7 C 80 % 1022,5 hPa 0,0 l/m 0,6 km/h SW 2,50 h 0,9 UV-I 151 W/m 4,4 km/h
21.02.2019 7,9 C 88 % 1026,2 hPa 0,8 l/m 2,2 km/h N 1,08 h 0,7 UV-I 124 W/m 10,9 km/h
22.02.2019 5,8 C 94 % 1036,8 hPa 1,2 l/m 3,0 km/h SO 0,00 h 0,7 UV-I 51 W/m 8,1 km/h
23.02.2019 2,8 C 73 % 1039,1 hPa 0,2 l/m 2,6 km/h S-SO 7,75 h 1,3 UV-I 210 W/m 8,9 km/h
24.02.2019 4,8 C 64 % 1038,1 hPa 0,0 l/m 0,0 km/h S 7,75 h 1,4 UV-I 256 W/m 0,0 km/h
25.02.2019 6,5 C 70 % 1037,0 hPa 0,0 l/m 0,0 km/h SO 7,67 h 1,3 UV-I 258 W/m 0,0 km/h
26.02.2019 6,1 C 70 % 1033,5 hPa 0,0 l/m 0,0 km/h SO 7,83 h 1,4 UV-I 260 W/m 0,0 km/h
27.02.2019 6,8 C 64 % 1023,1 hPa 0,0 l/m 0,6 km/h W 8,00 h 1,5 UV-I 271 W/m 4,8 km/h
28.02.2019 9,0 C 82 % 1013,3 hPa 0,0 l/m 3,0 km/h N 1,75 h 1,0 UV-I 151 W/m 16,9 km/h
01.03.2019 5,0 C 94 % 1014,0 hPa 2,8 l/m 2,7 km/h N 0,00 h 0,6 UV-I 42 W/m 12,9 km/h
02.03.2019 6,1 C 91 % 1012,8 hPa 1,0 l/m 5,1 km/h S 0,75 h 0,8 UV-I 98 W/m 13,3 km/h
03.03.2019 9,5 C 84 % 1003,4 hPa 2,6 l/m 22,2 km/h S-SW 0,00 h 0,5 UV-I 40 W/m 37,0 km/h
04.03.2019 6,6 C 78 % 993,6 hPa 4,8 l/m 16,2 km/h S 1,50 h 0,9 UV-I 130 W/m 31,4 km/h
05.03.2019 4,1 C 84 % 1006,2 hPa 2,8 l/m 7,9 km/h N 2,00 h 0,8 UV-I 143 W/m 16,5 km/h
06.03.2019 9,1 C 75 % 1000,3 hPa 1,4 l/m 20,4 km/h S-SO 2,25 h 1,1 UV-I 168 W/m 34,2 km/h
07.03.2019 8,3 C 75 % 995,4 hPa 0,6 l/m 20,9 km/h S-SW 3,17 h 1,1 UV-I 185 W/m 35,8 km/h
08.03.2019 5,9 C 81 % 1010,1 hPa 1,8 l/m 13,5 km/h S-SW 1,58 h 1,0 UV-I 145 W/m 26,1 km/h
09.03.2019 6,7 C 82 % 1009,1 hPa 9,0 l/m 13,6 km/h S-SW 0,92 h 1,0 UV-I 133 W/m 28,5 km/h
10.03.2019 3,5 C 94 % 1005,0 hPa 12,4 l/m 8,5 km/h N 0,00 h 0,6 UV-I 58 W/m 18,1 km/h
11.03.2019 2,1 C 94 % 1016,5 hPa 13,8 l/m 9,1 km/h N 0,08 h 0,6 UV-I 61 W/m 22,5 km/h
12.03.2019 5,1 C 71 % 1008,2 hPa 0,6 l/m 21,6 km/h S 1,75 h 1,2 UV-I 171 W/m 32,2 km/h
13.03.2019 4,8 C 86 % 1002,4 hPa 4,6 l/m 22,8 km/h S-SW 0,00 h 0,6 UV-I 68 W/m 41,0 km/h
14.03.2019 5,1 C 91 % 998,9 hPa 9,4 l/m 14,0 km/h N 0,00 h 0,6 UV-I 49 W/m 31,0 km/h
15.03.2019 7,1 C 87 % 1002,8 hPa 10,0 l/m 8,5 km/h N 0,00 h 0,6 UV-I 42 W/m 25,7 km/h
16.03.2019 7,7 C 84 % 1004,5 hPa 4,2 l/m 15,9 km/h N 0,00 h 0,6 UV-I 42 W/m 26,2 km/h
17.03.2019 5,5 C 85 % 1002,9 hPa 4,2 l/m 11,2 km/h S-SW 0,50 h 0,9 UV-I 96 W/m 25,8 km/h
18.03.2019 3,1 C 86 % 1017,4 hPa 2,0 l/m 5,8 km/h N 0,83 h 1,0 UV-I 141 W/m 15,7 km/h
19.03.2019 1,8 C 84 % 1028,9 hPa 0,0 l/m 0,2 km/h N 3,08 h 1,5 UV-I 210 W/m 1,6 km/h
20.03.2019 6,7 C 79 % 1033,7 hPa 0,0 l/m 0,3 km/h S-SW 5,75 h 1,8 UV-I 242 W/m 3,6 km/h
Min-Datum 22.01.19 24.02.19 27.01.19 56 Tage 02.01.19 - - - - 02.01.19
Min-Zeit 05:30 11:50 14:35 - 04:10 - - - - 06:35
Minimum -10,6 C 13 % 983,6 hPa - 0,0 km/h - - - - 0,0 km/h
Max-Datum 27.02.19 01.01.19 23.02.19 26.01.19 07.03.19 - 27.02.19 20.03.19 18.03.19 09.02.19
Max-Zeit 14:45 10:40 10:30 01:30 09:00 - 16:30 13:05 12:50 14:55
Maximum 18,8 C 98 % 1040,8 hPa 29,8 l/m 42,5 km/h
S-SW
- 7,92 h 3,7 UV-I 830 W/m 74,0 km/h
S-SW
Durchschnitt 3,3 C 87 % 1014,9 hPa #295,0 l/m 7,7 km/h N #153:10 h 0,8 UV-I 105 W/m 16,4 km/h

Durchschnitt Minimum Temp.0,3 C
Durchschnitt Maximum Temp.6,7 C